createdAt,value
2023-01-05T00:01:33.072Z,9.27
2023-01-05T00:04:00.671Z,9.28
2023-01-05T00:06:28.320Z,9.25
2023-01-05T00:08:55.786Z,9.29
2023-01-05T00:11:45.318Z,9.29
2023-01-05T00:14:43.690Z,9.30
2023-01-05T00:17:32.052Z,9.32
2023-01-05T00:20:18.320Z,9.32
2023-01-05T00:22:51.074Z,9.33
2023-01-05T00:25:29.919Z,9.32
2023-01-05T00:27:58.749Z,9.28
2023-01-05T00:30:30.383Z,9.29
2023-01-05T00:32:58.079Z,9.30
2023-01-05T00:35:25.581Z,9.30
2023-01-05T00:37:53.123Z,9.29
2023-01-05T00:40:22.648Z,9.31
2023-01-05T00:42:50.250Z,9.33
2023-01-05T00:45:19.385Z,9.32
2023-01-05T00:47:49.318Z,9.32
2023-01-05T00:50:18.696Z,9.29
2023-01-05T00:52:47.071Z,9.27
2023-01-05T00:55:15.397Z,9.20
2023-01-05T00:57:42.929Z,9.19
2023-01-05T01:00:16.225Z,9.19
2023-01-05T01:02:43.791Z,9.16
2023-01-05T01:05:11.742Z,9.15
2023-01-05T01:07:39.311Z,9.21
2023-01-05T01:10:08.132Z,9.17
2023-01-05T01:12:35.677Z,9.21
2023-01-05T01:15:03.471Z,9.16
2023-01-05T01:17:32.868Z,9.19
2023-01-05T01:20:00.291Z,9.22
2023-01-05T01:22:27.988Z,9.24
2023-01-05T01:24:55.454Z,9.24
2023-01-05T01:27:23.014Z,9.26
2023-01-05T01:29:50.432Z,9.32
2023-01-05T01:32:18.124Z,9.32
2023-01-05T01:34:45.608Z,9.35
2023-01-05T01:37:13.598Z,9.32
2023-01-05T01:39:48.381Z,9.31
2023-01-05T01:42:17.380Z,9.30
2023-01-05T01:44:56.238Z,9.26
2023-01-05T01:47:45.772Z,9.36
2023-01-05T01:50:22.344Z,9.40
2023-01-05T01:52:52.988Z,9.29
2023-01-05T01:55:21.128Z,9.16
2023-01-05T01:57:50.660Z,9.12
2023-01-05T02:00:19.221Z,9.16
2023-01-05T02:02:49.102Z,9.13
2023-01-05T02:05:23.975Z,9.12
2023-01-05T02:07:51.510Z,9.16
2023-01-05T02:10:41.357Z,9.22
2023-01-05T02:13:18.621Z,9.22
2023-01-05T02:16:12.276Z,9.24
2023-01-05T02:19:01.738Z,9.19
2023-01-05T02:21:47.758Z,9.23
2023-01-05T02:24:24.225Z,9.18
2023-01-05T02:27:41.212Z,9.21
2023-01-05T02:30:23.981Z,9.16
2023-01-05T02:32:56.922Z,9.18
2023-01-05T02:35:40.898Z,9.17
2023-01-05T02:38:31.376Z,9.19
2023-01-05T02:41:20.070Z,9.29
2023-01-05T02:43:48.040Z,9.33
2023-01-05T02:46:15.596Z,9.29
2023-01-05T02:48:46.027Z,9.28
2023-01-05T02:51:23.865Z,9.35
2023-01-05T02:54:02.547Z,9.29
2023-01-05T02:56:51.345Z,9.19
2023-01-05T02:59:32.112Z,9.13
2023-01-05T03:02:04.973Z,9.14
2023-01-05T03:04:39.946Z,9.21
2023-01-05T03:07:13.254Z,9.25
2023-01-05T03:09:42.842Z,9.31
2023-01-05T03:12:47.877Z,9.33
2023-01-05T03:15:31.148Z,9.44
2023-01-05T03:18:07.327Z,9.42
2023-01-05T03:20:40.610Z,9.45
2023-01-05T03:23:30.951Z,9.48
2023-01-05T03:26:17.842Z,9.49
2023-01-05T03:29:09.590Z,9.50
2023-01-05T03:32:01.887Z,9.56
2023-01-05T03:35:06.819Z,9.59
2023-01-05T03:37:55.744Z,9.59
2023-01-05T03:40:31.170Z,9.63
2023-01-05T03:42:59.882Z,9.58
2023-01-05T03:45:44.670Z,9.60
2023-01-05T03:48:18.881Z,9.62
2023-01-05T03:50:47.181Z,9.64
2023-01-05T03:53:16.555Z,9.67
2023-01-05T03:55:46.507Z,9.65
2023-01-05T03:58:14.723Z,9.70
2023-01-05T04:00:46.951Z,9.68
2023-01-05T04:03:17.467Z,9.76
2023-01-05T04:05:45.169Z,9.70
2023-01-05T04:08:13.198Z,9.71
2023-01-05T04:10:40.735Z,9.76
2023-01-05T04:13:09.462Z,9.76
2023-01-05T04:15:38.689Z,9.75
2023-01-05T04:18:08.262Z,9.74
2023-01-05T04:20:35.740Z,9.73
2023-01-05T04:23:03.502Z,9.64
2023-01-05T04:25:33.245Z,9.62
2023-01-05T04:28:12.047Z,9.59
2023-01-05T04:30:39.967Z,9.54
2023-01-05T04:33:07.422Z,9.50
2023-01-05T04:35:35.412Z,9.42
2023-01-05T04:38:04.212Z,9.43
2023-01-05T04:40:33.334Z,9.30
2023-01-05T04:43:01.617Z,9.24
2023-01-05T04:45:29.745Z,9.19
2023-01-05T04:47:59.112Z,9.15
2023-01-05T04:50:27.633Z,9.19
2023-01-05T04:52:56.841Z,9.25
2023-01-05T04:55:24.417Z,9.25
2023-01-05T04:57:52.783Z,9.21
2023-01-05T05:00:21.915Z,9.12
2023-01-05T05:02:51.549Z,9.05
2023-01-05T05:05:19.538Z,9.05
2023-01-05T05:07:51.303Z,9.00
2023-01-05T05:10:19.314Z,9.02
2023-01-05T05:12:48.362Z,8.94
2023-01-05T05:15:16.251Z,8.96
2023-01-05T05:17:47.224Z,8.99
2023-01-05T05:20:16.723Z,9.03
2023-01-05T05:22:44.759Z,9.12
2023-01-05T05:25:15.990Z,9.13
2023-01-05T05:27:47.046Z,9.13
2023-01-05T05:30:14.815Z,9.20
2023-01-05T05:36:29.761Z,9.17
2023-01-05T05:38:58.446Z,9.18
2023-01-05T05:41:26.132Z,9.12
2023-01-05T05:43:53.658Z,8.98
2023-01-05T05:46:21.366Z,8.75
2023-01-05T05:48:48.870Z,8.58
2023-01-05T05:51:16.376Z,8.49
2023-01-05T05:53:43.919Z,8.30
2023-01-05T05:56:11.521Z,8.14
2023-01-05T05:58:39.123Z,8.09
2023-01-05T06:01:06.925Z,8.07
2023-01-05T06:03:34.574Z,8.09
2023-01-05T06:06:03.121Z,8.14
2023-01-05T06:08:30.917Z,8.17
2023-01-05T06:10:58.877Z,8.22
2023-01-05T06:13:26.625Z,8.19
2023-01-05T06:15:54.146Z,8.27
2023-01-05T06:18:21.626Z,8.31
2023-01-05T06:20:49.174Z,8.31
2023-01-05T06:23:16.808Z,8.32
2023-01-05T06:25:44.569Z,8.32
2023-01-05T06:28:15.625Z,8.38
2023-01-05T06:30:45.936Z,8.38
2023-01-05T06:33:13.465Z,8.46
2023-01-05T06:35:41.075Z,8.50
2023-01-05T06:38:08.601Z,8.50
2023-01-05T06:40:36.156Z,8.54
2023-01-05T06:43:03.606Z,8.50
2023-01-05T06:45:32.497Z,8.54
2023-01-05T06:48:01.200Z,8.50
2023-01-05T06:50:30.562Z,8.55
2023-01-05T06:52:58.820Z,8.48
2023-01-05T06:55:26.384Z,8.50
2023-01-05T06:58:00.277Z,8.42
2023-01-05T07:00:29.390Z,8.44
2023-01-05T07:02:56.918Z,8.46
2023-01-05T07:05:24.794Z,8.52
2023-01-05T07:07:52.503Z,8.57
2023-01-05T07:10:20.102Z,8.60
2023-01-05T07:12:47.571Z,8.59
2023-01-05T07:15:15.048Z,8.59
2023-01-05T07:17:42.485Z,8.63
2023-01-05T07:20:10.231Z,8.66
2023-01-05T07:22:37.694Z,8.67
2023-01-05T07:25:05.472Z,8.74
2023-01-05T07:27:33.027Z,8.73
2023-01-05T07:30:00.694Z,8.73
2023-01-05T07:32:28.210Z,8.72
2023-01-05T07:34:56.213Z,8.71
2023-01-05T07:37:25.313Z,8.72
2023-01-05T07:39:53.480Z,8.73
2023-01-05T07:42:21.239Z,8.77
2023-01-05T07:44:50.422Z,8.70
2023-01-05T07:47:18.324Z,8.70
2023-01-05T07:49:46.538Z,8.69
2023-01-05T07:52:14.030Z,8.69
2023-01-05T07:54:41.600Z,8.70
2023-01-05T07:57:09.170Z,8.68
2023-01-05T07:59:36.648Z,8.65
2023-01-05T08:02:04.304Z,8.66
2023-01-05T08:04:32.017Z,8.71
2023-01-05T08:06:59.905Z,8.64
2023-01-05T08:09:46.120Z,8.59
2023-01-05T08:12:13.655Z,8.41
2023-01-05T08:14:41.160Z,8.30
2023-01-05T08:17:09.322Z,8.31
2023-01-05T08:19:36.960Z,8.38
2023-01-05T08:22:04.761Z,8.38
2023-01-05T08:24:32.448Z,8.44
2023-01-05T08:27:00.076Z,8.40
2023-01-05T08:29:28.131Z,8.48
2023-01-05T08:31:56.012Z,8.63
2023-01-05T08:34:23.558Z,8.57
2023-01-05T08:36:51.070Z,8.34
2023-01-05T08:39:18.540Z,8.24
2023-01-05T08:41:45.990Z,8.20
2023-01-05T08:44:14.538Z,8.08
2023-01-05T08:46:42.112Z,8.05
2023-01-05T08:49:10.067Z,8.19
2023-01-05T08:51:38.531Z,8.35
2023-01-05T08:54:06.145Z,8.40
2023-01-05T08:56:38.574Z,8.31
2023-01-05T08:59:07.202Z,8.38
2023-01-05T09:01:34.846Z,8.61
2023-01-05T09:04:02.521Z,8.71
2023-01-05T09:06:29.979Z,8.87
2023-01-05T09:08:57.501Z,8.92
2023-01-05T09:11:26.209Z,8.75
2023-01-05T09:13:56.821Z,8.59
2023-01-05T09:19:17.958Z,8.31
2023-01-05T09:21:45.464Z,8.13
2023-01-05T09:24:13.369Z,8.10
2023-01-05T09:26:42.382Z,8.05
2023-01-05T09:29:11.305Z,8.09
2023-01-05T09:31:40.662Z,8.34
2023-01-05T09:34:08.293Z,8.54
2023-01-05T09:36:38.938Z,8.62
2023-01-05T09:39:06.710Z,8.63
2023-01-05T09:41:38.232Z,8.59
2023-01-05T09:44:37.019Z,8.48
2023-01-05T09:47:21.086Z,8.48
2023-01-05T09:49:50.492Z,8.54
2023-01-05T09:52:22.758Z,8.66
2023-01-05T09:54:50.420Z,8.63
2023-01-05T09:57:25.569Z,8.81
2023-01-05T09:59:59.318Z,9.00
2023-01-05T10:02:46.360Z,9.05
2023-01-05T10:05:15.614Z,9.11
2023-01-05T10:07:54.096Z,9.29
2023-01-05T10:10:37.590Z,9.30
2023-01-05T10:13:07.299Z,9.17
2023-01-05T10:15:46.609Z,9.19
2023-01-05T10:18:21.236Z,9.17
2023-01-05T10:21:27.284Z,9.16
2023-01-05T10:24:16.403Z,9.21
2023-01-05T10:27:25.846Z,9.12
2023-01-05T10:30:18.592Z,9.13
2023-01-05T10:32:50.548Z,8.98
2023-01-05T10:38:28.975Z,8.46
2023-01-05T10:41:15.036Z,8.59
2023-01-05T10:44:20.028Z,8.76
2023-01-05T10:46:52.738Z,8.84
2023-01-05T10:49:26.589Z,8.99
2023-01-05T10:52:00.018Z,9.12
2023-01-05T10:54:33.763Z,9.29
2023-01-05T10:57:34.650Z,9.44
2023-01-05T11:00:12.247Z,9.52
2023-01-05T11:02:48.478Z,9.43
2023-01-05T11:05:33.428Z,9.44
2023-01-05T11:08:04.340Z,9.46
2023-01-05T11:10:36.532Z,9.64
2023-01-05T11:13:16.950Z,9.39
2023-01-05T11:15:52.846Z,9.23
2023-01-05T11:18:36.850Z,8.94
2023-01-05T11:21:13.619Z,8.72
2023-01-05T11:23:51.097Z,8.74
2023-01-05T11:26:18.597Z,8.84
2023-01-05T11:28:58.219Z,8.85
2023-01-05T11:31:31.968Z,8.84
2023-01-05T11:34:00.351Z,8.85
2023-01-05T11:36:27.904Z,8.82
2023-01-05T11:38:58.173Z,8.73
2023-01-05T11:41:25.963Z,8.73
2023-01-05T11:43:54.809Z,8.79
2023-01-05T11:46:22.925Z,8.80
2023-01-05T11:48:54.503Z,8.89
2023-01-05T11:51:40.863Z,9.09
2023-01-05T11:54:33.082Z,9.08
2023-01-05T11:57:22.509Z,9.06
2023-01-05T11:59:55.880Z,9.09
2023-01-05T12:02:39.624Z,9.07
2023-01-05T12:05:16.400Z,9.12
2023-01-05T12:07:53.564Z,9.21
2023-01-05T12:10:27.312Z,9.19
2023-01-05T12:13:24.956Z,9.12
2023-01-05T12:16:02.479Z,9.13
2023-01-05T12:18:54.851Z,8.98
2023-01-05T12:21:27.791Z,8.91
2023-01-05T12:24:07.191Z,8.92
2023-01-05T12:27:02.731Z,8.90
2023-01-05T12:35:45.325Z,9.06
2023-01-05T12:38:25.490Z,9.14
2023-01-05T12:40:55.815Z,9.08
2023-01-05T12:43:54.902Z,9.01
2023-01-05T12:46:56.052Z,9.08
2023-01-05T12:49:44.443Z,9.13
2023-01-05T12:52:22.969Z,8.98
2023-01-05T12:55:05.577Z,9.01
2023-01-05T12:57:39.253Z,8.99
2023-01-05T13:00:13.052Z,8.86
2023-01-05T13:02:56.754Z,8.79
2023-01-05T13:05:32.848Z,8.63
2023-01-05T13:08:17.672Z,8.54
2023-01-05T13:10:57.765Z,8.47
2023-01-05T13:13:48.591Z,8.55
2023-01-05T13:16:26.630Z,8.63
2023-01-05T13:19:02.355Z,8.72
2023-01-05T13:21:31.584Z,8.72
2023-01-05T13:24:22.911Z,8.84
2023-01-05T13:26:51.084Z,9.04
2023-01-05T13:29:44.206Z,9.06
2023-01-05T13:32:40.875Z,9.01
2023-01-05T13:35:40.598Z,8.95
2023-01-05T13:38:43.252Z,8.68
2023-01-05T13:41:13.262Z,8.69
2023-01-05T13:44:02.361Z,8.71
2023-01-05T13:46:54.791Z,8.61
2023-01-05T13:50:16.887Z,8.63
2023-01-05T13:53:20.452Z,8.61
2023-01-05T13:56:14.099Z,8.54
2023-01-05T13:58:44.084Z,8.50
2023-01-05T14:01:33.204Z,8.55
2023-01-05T14:04:01.667Z,8.45
2023-01-05T14:06:36.089Z,8.44
2023-01-05T14:09:14.729Z,8.42
2023-01-05T14:12:08.213Z,8.41
2023-01-05T14:15:13.017Z,8.37
2023-01-05T14:17:55.756Z,8.31
2023-01-05T14:20:35.146Z,8.30
2023-01-05T14:23:25.372Z,8.25
2023-01-05T14:25:56.510Z,8.21
2023-01-05T14:28:42.436Z,8.16
2023-01-05T14:31:16.396Z,8.12
2023-01-05T14:33:54.193Z,8.09
2023-01-05T14:36:47.421Z,7.93
2023-01-05T14:39:17.962Z,7.89
2023-01-05T14:42:04.039Z,7.81
2023-01-05T14:44:45.758Z,7.71
2023-01-05T14:47:13.689Z,7.66
2023-01-05T14:50:05.029Z,7.63
2023-01-05T14:52:59.119Z,7.59
2023-01-05T14:55:39.561Z,7.52
2023-01-05T14:58:36.692Z,7.43
2023-01-05T15:01:16.766Z,7.39
2023-01-05T15:04:03.179Z,7.34
2023-01-05T15:06:48.808Z,7.34
2023-01-05T15:10:07.188Z,7.33
2023-01-05T15:12:55.887Z,7.26
2023-01-05T15:15:29.354Z,7.24
2023-01-05T15:18:12.499Z,7.20
2023-01-05T15:21:03.579Z,7.18
2023-01-05T15:23:51.064Z,7.16
2023-01-05T15:26:57.564Z,7.12
2023-01-05T15:29:46.610Z,7.09
2023-01-05T15:32:27.122Z,6.89
2023-01-05T15:35:09.726Z,6.81
2023-01-05T15:37:39.848Z,6.76
2023-01-05T15:40:27.460Z,6.71
2023-01-05T15:42:58.505Z,6.70
2023-01-05T15:45:29.276Z,6.69
2023-01-05T15:48:01.055Z,6.58
2023-01-05T15:50:50.151Z,6.63
2023-01-05T15:53:29.669Z,6.60
2023-01-05T15:55:58.304Z,6.51
2023-01-05T15:58:28.008Z,6.46
2023-01-05T16:01:04.889Z,6.45
2023-01-05T16:03:35.982Z,6.43
2023-01-05T16:06:25.613Z,6.46
2023-01-05T16:08:56.416Z,6.45
2023-01-05T16:11:29.328Z,6.47
2023-01-05T16:14:03.205Z,6.45
2023-01-05T16:16:52.906Z,6.44
2023-01-05T16:19:34.779Z,6.46
2023-01-05T16:22:24.344Z,6.43
2023-01-05T16:25:10.297Z,6.46
2023-01-05T16:27:41.101Z,6.44
2023-01-05T16:30:32.108Z,6.38
2023-01-05T16:33:19.718Z,6.40
2023-01-05T16:35:53.107Z,6.39
2023-01-05T16:38:20.654Z,6.40
2023-01-05T16:40:50.883Z,6.40
2023-01-05T16:44:03.412Z,6.43
2023-01-05T16:46:40.318Z,6.36
2023-01-05T16:49:33.770Z,6.37
2023-01-05T16:52:02.811Z,6.37
2023-01-05T16:54:38.382Z,6.38
2023-01-05T16:57:42.189Z,6.33
2023-01-05T17:00:42.189Z,6.40
2023-01-05T17:03:31.461Z,6.40
2023-01-05T17:06:01.241Z,6.46
2023-01-05T17:08:31.966Z,6.38
2023-01-05T17:11:01.952Z,6.38
2023-01-05T17:13:37.911Z,6.35
2023-01-05T17:16:06.044Z,6.31
2023-01-05T17:18:33.593Z,6.33
2023-01-05T17:21:03.376Z,6.33
2023-01-05T17:23:42.408Z,6.35
2023-01-05T17:26:12.131Z,6.29
2023-01-05T17:28:42.087Z,6.28
2023-01-05T17:31:10.785Z,6.28
2023-01-05T17:33:38.429Z,6.28
2023-01-05T17:36:06.516Z,6.28
2023-01-05T17:38:34.118Z,6.27
2023-01-05T17:41:01.807Z,6.27
2023-01-05T17:43:29.261Z,6.29
2023-01-05T17:45:57.116Z,6.29
2023-01-05T17:48:24.662Z,6.33
2023-01-05T17:50:54.174Z,6.33
2023-01-05T17:53:22.211Z,6.32
2023-01-05T17:55:49.730Z,6.33
2023-01-05T17:58:17.198Z,6.32
2023-01-05T18:00:48.365Z,6.30
2023-01-05T18:03:22.024Z,6.32
2023-01-05T18:05:51.496Z,6.27
2023-01-05T18:08:20.395Z,6.26
2023-01-05T18:10:48.274Z,6.23
2023-01-05T18:13:18.283Z,6.22
2023-01-05T18:15:50.784Z,6.24
2023-01-05T18:18:18.766Z,6.21
2023-01-05T18:20:46.291Z,6.25
2023-01-05T18:23:13.806Z,6.22
2023-01-05T18:25:41.391Z,6.21
2023-01-05T18:28:08.903Z,6.20
2023-01-05T18:30:36.735Z,6.23
2023-01-05T18:33:04.332Z,6.18
2023-01-05T18:35:31.907Z,6.19
2023-01-05T18:38:01.234Z,6.14
2023-01-05T18:40:29.253Z,6.12
2023-01-05T18:42:56.982Z,6.11
2023-01-05T18:45:38.221Z,6.10
2023-01-05T18:48:06.889Z,6.11
2023-01-05T18:50:34.349Z,6.07
2023-01-05T18:53:01.882Z,6.08
2023-01-05T18:55:29.488Z,6.07
2023-01-05T18:57:57.019Z,6.03
2023-01-05T19:00:24.396Z,6.00
2023-01-05T19:02:51.965Z,6.05
2023-01-05T19:05:19.472Z,6.09
2023-01-05T19:07:51.263Z,6.04
2023-01-05T19:10:19.106Z,6.05
2023-01-05T19:12:46.592Z,5.99
2023-01-05T19:15:14.202Z,5.97
2023-01-05T19:17:41.938Z,5.94
2023-01-05T19:20:09.877Z,5.92
2023-01-05T19:22:37.392Z,5.86
2023-01-05T19:25:06.202Z,5.83
2023-01-05T19:27:34.876Z,5.85
2023-01-05T19:30:02.413Z,5.81
2023-01-05T19:32:31.972Z,5.81
2023-01-05T19:34:59.528Z,5.82
2023-01-05T19:37:27.000Z,5.82
2023-01-05T19:39:54.911Z,5.82
2023-01-05T19:42:22.390Z,5.78
2023-01-05T19:44:50.538Z,5.74
2023-01-05T19:47:18.066Z,5.80
2023-01-05T19:49:45.672Z,5.74
2023-01-05T19:52:13.992Z,5.76
2023-01-05T19:54:42.416Z,5.78
2023-01-05T19:57:09.995Z,5.78
2023-01-05T19:59:37.583Z,5.81
2023-01-05T20:02:06.421Z,5.82
2023-01-05T20:04:34.204Z,5.82
2023-01-05T20:07:03.929Z,5.84
2023-01-05T20:09:32.255Z,5.80
2023-01-05T20:12:13.178Z,5.82
2023-01-05T20:14:42.694Z,5.76
2023-01-05T20:17:11.721Z,5.81
2023-01-05T20:19:39.798Z,5.79
2023-01-05T20:22:08.904Z,5.80
2023-01-05T20:24:37.427Z,5.82
2023-01-05T20:27:08.874Z,5.84
2023-01-05T20:29:37.932Z,5.86
2023-01-05T20:32:09.092Z,5.77
2023-01-05T20:34:38.783Z,5.82
2023-01-05T20:37:08.305Z,5.86
2023-01-05T20:39:37.801Z,5.85
2023-01-05T20:42:05.771Z,5.84
2023-01-05T20:44:36.472Z,5.83
2023-01-05T20:47:06.743Z,5.79
2023-01-05T20:49:36.015Z,5.80
2023-01-05T20:52:04.023Z,5.78
2023-01-05T20:54:31.835Z,5.79
2023-01-05T20:56:59.391Z,5.82
2023-01-05T20:59:32.098Z,5.82
2023-01-05T21:02:00.857Z,5.83
2023-01-05T21:04:29.975Z,5.80
2023-01-05T21:07:04.144Z,5.80
2023-01-05T21:09:31.652Z,5.83
2023-01-05T21:11:59.253Z,5.80
2023-01-05T21:14:26.828Z,5.79
2023-01-05T21:16:55.617Z,5.83
2023-01-05T21:19:24.232Z,5.80
2023-01-05T21:21:55.843Z,5.82
2023-01-05T21:24:24.276Z,5.80
2023-01-05T21:26:52.047Z,5.77
2023-01-05T21:29:23.052Z,5.72
2023-01-05T21:31:51.529Z,5.76
2023-01-05T21:34:19.211Z,5.75
2023-01-05T21:36:48.513Z,5.68
2023-01-05T21:39:20.040Z,5.67
2023-01-05T21:42:07.401Z,5.71
2023-01-05T21:44:35.352Z,5.80
2023-01-05T21:47:05.651Z,5.77
2023-01-05T21:49:35.177Z,5.78
2023-01-05T21:52:21.544Z,5.77
2023-01-05T21:55:08.047Z,5.72
2023-01-05T21:57:35.676Z,5.71
2023-01-05T22:00:04.129Z,5.72
2023-01-05T22:02:32.400Z,5.70
2023-01-05T22:04:59.889Z,5.67
2023-01-05T22:07:27.523Z,5.64
2023-01-05T22:09:55.108Z,5.62
2023-01-05T22:12:22.632Z,5.56
2023-01-05T22:14:50.450Z,5.57
2023-01-05T22:17:18.037Z,5.49
2023-01-05T22:19:45.561Z,5.50
2023-01-05T22:22:13.156Z,5.52
2023-01-05T22:24:40.589Z,5.52
2023-01-05T22:27:08.527Z,5.56
2023-01-05T22:29:35.981Z,5.56
2023-01-05T22:32:03.739Z,5.56
2023-01-05T22:34:31.646Z,5.54
2023-01-05T22:36:59.239Z,5.55
2023-01-05T22:39:26.726Z,5.57
2023-01-05T22:41:54.253Z,5.58
2023-01-05T22:44:21.749Z,5.57
2023-01-05T22:46:49.251Z,5.55
2023-01-05T22:49:16.812Z,5.61
2023-01-05T22:51:46.438Z,5.61
2023-01-05T22:54:14.468Z,5.61
2023-01-05T22:56:42.006Z,5.62
2023-01-05T22:59:09.543Z,5.57
2023-01-05T23:01:39.851Z,5.58
2023-01-05T23:04:07.892Z,5.57
2023-01-05T23:06:35.639Z,5.59
2023-01-05T23:09:05.120Z,5.60
2023-01-05T23:11:36.762Z,5.61
2023-01-05T23:14:06.912Z,5.62
2023-01-05T23:16:35.548Z,5.64
2023-01-05T23:19:05.908Z,5.63
2023-01-05T23:21:34.720Z,5.63
2023-01-05T23:24:02.676Z,5.63
2023-01-05T23:26:30.577Z,5.63
2023-01-05T23:28:58.535Z,5.61
2023-01-05T23:31:26.475Z,5.61
2023-01-05T23:33:53.882Z,5.60
2023-01-05T23:36:23.729Z,5.58
2023-01-05T23:38:52.075Z,5.61
2023-01-05T23:41:19.695Z,5.59
2023-01-05T23:43:47.556Z,5.61
2023-01-05T23:46:20.179Z,5.60
2023-01-05T23:48:49.270Z,5.58
2023-01-05T23:51:18.367Z,5.55
2023-01-05T23:53:48.739Z,5.55
2023-01-05T23:56:19.743Z,5.54
2023-01-05T23:58:48.312Z,5.57
